Manila, California
Current Conditions -  °F | °C
As of 7:59 AM on Sunday 21 Dec 2014 (Local Time) from KACV Reporting Station
Light Rain Light Rain  
Wind Chill: 57°   Ceiling: 200
Heat Index: 57°   Visibility: 1.7mi
Dew Point: 56°   Wind: 6mph
Humidity: 96%   Direction: 170°S
Pressure: 30.23"   Gusts: NA
Location:  40.8501°N, 124.038°W
Report Text: KACV 211559Z AUTO 17005KT 1 3/4SM R32/5500VP6000FT -RA BR OVC002 14/13 A3023 RMK AO2 P0001 T01390133
Loading
Personal Weather Stations






























Interactive Weather Map New forecast layout! Learn more

10-Day Weather Forecast

Advertisements
Track Severe Weather on mobile